createdAt,value
2019-02-25T00:01:08.284Z,1.92
2019-02-25T00:03:36.854Z,1.62
2019-02-25T00:06:05.331Z,1.83
2019-02-25T00:08:33.819Z,1.70
2019-02-25T00:11:02.271Z,1.60
2019-02-25T00:13:30.917Z,1.50
2019-02-25T00:15:59.415Z,1.70
2019-02-25T00:18:27.859Z,1.53
2019-02-25T00:20:56.313Z,1.40
2019-02-25T00:23:24.903Z,1.40
2019-02-25T00:25:53.389Z,1.60
2019-02-25T00:28:21.847Z,1.90
2019-02-25T00:30:50.303Z,1.82
2019-02-25T00:33:18.835Z,1.70
2019-02-25T00:35:47.354Z,1.85
2019-02-25T00:38:15.802Z,1.70
2019-02-25T00:40:44.272Z,1.52
2019-02-25T00:43:12.759Z,1.90
2019-02-25T00:45:41.239Z,1.92
2019-02-25T00:48:09.724Z,2.00
2019-02-25T00:50:38.231Z,2.15
2019-02-25T00:53:06.803Z,2.67
2019-02-25T00:55:35.927Z,2.55
2019-02-25T00:58:04.968Z,2.45
2019-02-25T01:00:33.414Z,2.05
2019-02-25T01:03:01.911Z,2.00
2019-02-25T01:05:30.521Z,1.82
2019-02-25T01:07:58.970Z,1.90
2019-02-25T01:10:27.486Z,1.62
2019-02-25T01:12:55.915Z,1.75
2019-02-25T01:15:24.375Z,2.15
2019-02-25T01:17:52.927Z,1.82
2019-02-25T01:20:21.407Z,1.60
2019-02-25T01:22:49.876Z,1.50
2019-02-25T01:25:18.371Z,1.85
2019-02-25T01:27:46.869Z,1.70
2019-02-25T01:30:16.818Z,1.55
2019-02-25T01:32:45.278Z,1.50
2019-02-25T01:35:14.753Z,1.42
2019-02-25T01:37:43.260Z,1.70
2019-02-25T01:40:13.058Z,1.37
2019-02-25T01:42:41.509Z,1.90
2019-02-25T01:45:11.543Z,1.85
2019-02-25T01:47:40.033Z,1.52
2019-02-25T01:50:10.145Z,1.75
2019-02-25T01:52:38.545Z,1.50
2019-02-25T01:55:08.835Z,1.70
2019-02-25T01:57:37.304Z,1.72
2019-02-25T02:00:07.251Z,1.90
2019-02-25T02:02:35.827Z,1.40
2019-02-25T02:05:06.049Z,1.80
2019-02-25T02:07:34.633Z,1.60
2019-02-25T02:10:03.078Z,2.47
2019-02-25T02:12:32.212Z,1.50
2019-02-25T02:15:01.439Z,2.15
2019-02-25T02:17:29.883Z,1.70
2019-02-25T02:19:58.393Z,2.08
2019-02-25T02:22:26.845Z,1.82
2019-02-25T02:24:55.295Z,1.65
2019-02-25T02:27:23.815Z,1.20
2019-02-25T02:29:52.239Z,2.30
2019-02-25T02:32:20.694Z,1.72
2019-02-25T02:34:49.183Z,2.00
2019-02-25T02:37:17.648Z,1.82
2019-02-25T02:39:46.098Z,1.87
2019-02-25T02:42:19.025Z,1.70
2019-02-25T02:44:51.370Z,1.70
2019-02-25T02:47:33.371Z,2.22
2019-02-25T02:50:02.717Z,1.80
2019-02-25T02:52:31.166Z,1.85
2019-02-25T02:54:59.936Z,1.65
2019-02-25T02:57:28.407Z,1.75
2019-02-25T02:59:56.861Z,1.77
2019-02-25T03:02:25.384Z,2.10
2019-02-25T03:04:53.823Z,1.60
2019-02-25T03:07:22.448Z,2.00
2019-02-25T03:09:51.031Z,1.60
2019-02-25T03:12:19.513Z,1.57
2019-02-25T03:14:47.983Z,1.65
2019-02-25T03:17:16.482Z,1.60
2019-02-25T03:19:44.958Z,2.15
2019-02-25T03:22:13.374Z,1.67
2019-02-25T03:24:41.920Z,1.72
2019-02-25T03:27:10.328Z,1.70
2019-02-25T03:29:38.881Z,1.40
2019-02-25T03:32:07.389Z,1.52
2019-02-25T03:34:35.841Z,2.02
2019-02-25T03:37:04.326Z,1.65
2019-02-25T03:39:32.800Z,1.60
2019-02-25T03:42:01.286Z,1.57
2019-02-25T03:44:29.714Z,1.42
2019-02-25T03:46:58.215Z,1.60
2019-02-25T03:49:26.677Z,1.40
2019-02-25T03:51:55.133Z,1.60
2019-02-25T03:54:23.634Z,1.80
2019-02-25T03:56:52.088Z,1.60
2019-02-25T03:59:20.544Z,1.50
2019-02-25T04:01:49.039Z,1.47
2019-02-25T04:04:17.498Z,1.70
2019-02-25T04:06:45.951Z,1.65
2019-02-25T04:09:14.479Z,1.60
2019-02-25T04:11:42.904Z,1.65
2019-02-25T04:14:11.439Z,1.70
2019-02-25T04:16:41.252Z,1.90
2019-02-25T04:19:09.835Z,1.20
2019-02-25T04:21:38.317Z,1.60
2019-02-25T04:24:06.772Z,1.70
2019-02-25T04:26:35.228Z,1.57
2019-02-25T04:29:03.679Z,2.00
2019-02-25T04:31:32.175Z,1.37
2019-02-25T04:34:00.633Z,1.60
2019-02-25T04:36:29.205Z,2.00
2019-02-25T04:38:57.702Z,1.45
2019-02-25T04:41:26.148Z,2.10
2019-02-25T04:43:54.647Z,1.70
2019-02-25T04:46:23.123Z,1.60
2019-02-25T04:48:51.580Z,1.40
2019-02-25T04:51:20.090Z,1.60
2019-02-25T04:53:53.153Z,1.75
2019-02-25T04:56:25.318Z,1.80
2019-02-25T04:59:00.353Z,1.80
2019-02-25T05:01:33.438Z,1.70
2019-02-25T05:04:02.000Z,2.00
2019-02-25T05:06:30.499Z,1.57
2019-02-25T05:08:59.016Z,1.60
2019-02-25T05:11:29.079Z,1.73
2019-02-25T05:13:57.617Z,1.98
2019-02-25T05:16:26.032Z,1.77
2019-02-25T05:18:54.489Z,3.00
2019-02-25T05:21:22.983Z,2.10
2019-02-25T05:23:51.543Z,1.45
2019-02-25T05:26:20.133Z,1.62
2019-02-25T05:28:48.600Z,1.50
2019-02-25T05:31:17.051Z,1.62
2019-02-25T05:33:45.568Z,2.00
2019-02-25T05:36:14.049Z,1.52
2019-02-25T05:38:42.451Z,1.47
2019-02-25T05:41:10.951Z,1.70
2019-02-25T05:43:39.413Z,1.55
2019-02-25T05:46:07.868Z,1.70
2019-02-25T05:48:36.367Z,1.53
2019-02-25T05:51:05.037Z,1.45
2019-02-25T05:53:33.492Z,1.90
2019-02-25T05:56:02.104Z,1.70
2019-02-25T05:58:30.555Z,1.95
2019-02-25T06:00:59.070Z,1.52
2019-02-25T06:03:27.618Z,2.60
2019-02-25T06:05:56.056Z,1.63
2019-02-25T06:08:24.505Z,2.00
2019-02-25T06:10:53.099Z,2.05
2019-02-25T06:13:21.566Z,1.77
2019-02-25T06:15:51.451Z,2.15
2019-02-25T06:18:20.148Z,2.23
2019-02-25T06:20:48.600Z,1.90
2019-02-25T06:23:17.058Z,2.20
2019-02-25T06:25:45.557Z,1.90
2019-02-25T06:28:14.102Z,2.20
2019-02-25T06:30:42.575Z,2.53
2019-02-25T06:33:11.065Z,3.10
2019-02-25T06:35:39.512Z,2.80
2019-02-25T06:38:07.994Z,2.80
2019-02-25T06:40:36.444Z,2.73
2019-02-25T06:43:04.895Z,2.23
2019-02-25T06:45:34.395Z,2.20
2019-02-25T06:48:02.849Z,2.20
2019-02-25T06:50:31.296Z,2.70
2019-02-25T06:52:59.832Z,2.50
2019-02-25T06:55:28.315Z,2.50
2019-02-25T06:57:57.470Z,2.47
2019-02-25T07:00:25.964Z,2.30
2019-02-25T07:02:54.418Z,2.33
2019-02-25T07:05:40.319Z,2.20
2019-02-25T07:08:10.790Z,2.47
2019-02-25T07:10:44.186Z,2.30
2019-02-25T07:13:14.716Z,2.70
2019-02-25T07:15:51.184Z,2.87
2019-02-25T07:18:38.200Z,2.70
2019-02-25T07:21:17.916Z,2.47
2019-02-25T07:24:05.165Z,2.33
2019-02-25T07:26:44.809Z,2.17
2019-02-25T07:29:31.925Z,2.57
2019-02-25T07:32:04.810Z,2.60
2019-02-25T07:34:53.156Z,2.53
2019-02-25T07:37:35.769Z,2.87
2019-02-25T07:40:09.165Z,2.87
2019-02-25T07:42:39.591Z,2.60
2019-02-25T07:45:22.000Z,2.93
2019-02-25T07:47:58.572Z,2.50
2019-02-25T07:50:28.992Z,2.90
2019-02-25T07:53:01.659Z,2.83
2019-02-25T07:55:37.342Z,2.40
2019-02-25T07:58:07.444Z,2.77
2019-02-25T08:00:40.058Z,3.17
2019-02-25T08:03:25.122Z,2.95
2019-02-25T08:06:12.069Z,3.63
2019-02-25T08:08:45.708Z,2.77
2019-02-25T08:11:15.764Z,3.33
2019-02-25T08:13:52.069Z,2.40
2019-02-25T08:16:22.104Z,2.27
2019-02-25T08:19:07.076Z,3.13
2019-02-25T08:21:40.064Z,3.10
2019-02-25T08:24:30.485Z,2.80
2019-02-25T08:26:58.228Z,2.60
2019-02-25T08:29:28.256Z,2.40
2019-02-25T08:32:14.554Z,3.47
2019-02-25T08:34:44.657Z,3.00
2019-02-25T08:37:34.745Z,2.53
2019-02-25T08:40:07.220Z,3.20
2019-02-25T08:42:36.661Z,2.63
2019-02-25T08:45:09.609Z,2.73
2019-02-25T08:47:42.332Z,2.60
2019-02-25T08:50:13.881Z,2.50
2019-02-25T08:52:42.428Z,2.50
2019-02-25T08:55:11.091Z,2.80
2019-02-25T08:57:39.579Z,2.10
2019-02-25T09:00:09.609Z,3.00
2019-02-25T09:02:38.090Z,2.37
2019-02-25T09:05:08.108Z,2.23
2019-02-25T09:07:36.576Z,2.00
2019-02-25T09:10:06.491Z,2.67
2019-02-25T09:12:35.185Z,2.47
2019-02-25T09:15:04.917Z,1.90
2019-02-25T09:17:34.916Z,2.10
2019-02-25T09:20:05.111Z,2.17
2019-02-25T09:22:34.029Z,2.50
2019-02-25T09:25:03.022Z,2.10
2019-02-25T09:27:32.016Z,1.90
2019-02-25T09:30:00.906Z,1.90
2019-02-25T09:32:29.798Z,2.07
2019-02-25T09:34:58.291Z,2.10
2019-02-25T09:37:26.784Z,1.80
2019-02-25T09:39:55.226Z,1.57
2019-02-25T09:42:23.671Z,1.70
2019-02-25T09:44:52.612Z,2.17
2019-02-25T09:47:21.506Z,2.53
2019-02-25T09:49:51.038Z,2.10
2019-02-25T09:52:20.243Z,3.00
2019-02-25T09:54:48.703Z,2.13
2019-02-25T09:57:17.146Z,1.80
2019-02-25T09:59:45.751Z,1.60
2019-02-25T10:02:14.643Z,1.70
2019-02-25T10:04:43.126Z,1.67
2019-02-25T10:07:12.004Z,1.80
2019-02-25T10:09:40.905Z,1.70
2019-02-25T10:12:09.898Z,1.60
2019-02-25T10:14:38.788Z,1.70
2019-02-25T10:17:07.679Z,1.70
2019-02-25T10:19:36.570Z,2.30
2019-02-25T10:22:05.563Z,1.67
2019-02-25T10:24:34.454Z,2.00
2019-02-25T10:27:03.345Z,1.60
2019-02-25T10:29:32.339Z,1.93
2019-02-25T10:32:02.593Z,1.80
2019-02-25T10:34:31.758Z,1.73
2019-02-25T10:37:00.663Z,1.77
2019-02-25T10:39:29.642Z,1.50
2019-02-25T10:41:59.570Z,1.73
2019-02-25T10:44:29.705Z,1.70
2019-02-25T10:46:59.694Z,1.60
2019-02-25T10:49:29.405Z,1.77
2019-02-25T10:51:59.113Z,2.67
2019-02-25T10:54:28.108Z,1.50
2019-02-25T10:56:57.924Z,2.30
2019-02-25T10:59:27.526Z,1.50
2019-02-25T11:01:56.519Z,1.40
2019-02-25T11:04:26.261Z,1.63
2019-02-25T11:06:55.939Z,1.90
2019-02-25T11:09:32.928Z,1.50
2019-02-25T11:12:01.913Z,1.50
2019-02-25T11:14:33.328Z,1.93
2019-02-25T11:17:02.154Z,1.80
2019-02-25T11:19:32.874Z,1.27
2019-02-25T11:22:01.473Z,1.40
2019-02-25T11:24:30.462Z,1.50
2019-02-25T11:27:00.978Z,1.77
2019-02-25T11:29:29.884Z,1.57
2019-02-25T11:31:58.876Z,1.63
2019-02-25T11:34:29.336Z,1.80
2019-02-25T11:36:59.496Z,1.40
2019-02-25T11:39:30.109Z,1.50
2019-02-25T11:41:59.357Z,1.70
2019-02-25T11:44:31.204Z,1.90
2019-02-25T11:46:58.768Z,1.80
2019-02-25T11:49:27.665Z,1.53
2019-02-25T11:51:56.662Z,1.40
2019-02-25T11:54:25.654Z,1.60
2019-02-25T11:56:54.543Z,1.90
2019-02-25T11:59:23.446Z,1.50
2019-02-25T12:01:52.427Z,1.80
2019-02-25T12:04:21.318Z,1.63
2019-02-25T12:06:50.211Z,2.50
2019-02-25T12:09:19.204Z,1.80
2019-02-25T12:11:48.120Z,1.80
2019-02-25T12:14:17.087Z,1.60
2019-02-25T12:16:45.976Z,1.83
2019-02-25T12:19:18.024Z,1.63
2019-02-25T12:21:45.396Z,1.83
2019-02-25T12:24:13.788Z,1.50
2019-02-25T12:26:42.235Z,1.53
2019-02-25T12:29:11.185Z,1.90
2019-02-25T12:31:40.283Z,1.70
2019-02-25T12:34:08.731Z,1.77
2019-02-25T12:36:37.411Z,1.70
2019-02-25T12:39:07.528Z,1.57
2019-02-25T12:41:36.111Z,2.23
2019-02-25T12:44:04.594Z,2.10
2019-02-25T12:46:33.040Z,7.30
2019-02-25T12:49:01.491Z,8.17
2019-02-25T12:51:29.980Z,2.13
2019-02-25T12:53:58.428Z,2.20
2019-02-25T12:56:26.887Z,1.60
2019-02-25T12:58:55.615Z,1.83
2019-02-25T13:01:24.267Z,1.77
2019-02-25T13:03:52.750Z,1.93
2019-02-25T13:06:21.204Z,2.83
2019-02-25T13:08:49.653Z,1.87
2019-02-25T13:11:18.099Z,1.67
2019-02-25T13:13:46.593Z,1.70
2019-02-25T13:16:15.154Z,2.03
2019-02-25T13:18:43.634Z,1.97
2019-02-25T13:21:12.116Z,1.80
2019-02-25T13:23:40.627Z,2.30
2019-02-25T13:26:09.899Z,2.17
2019-02-25T13:28:38.354Z,2.10
2019-02-25T13:31:07.713Z,2.13
2019-02-25T13:33:36.936Z,2.37
2019-02-25T13:36:06.894Z,2.10
2019-02-25T13:38:35.317Z,2.20
2019-02-25T13:41:04.466Z,11.17
2019-02-25T13:43:32.955Z,5.50
2019-02-25T13:46:01.403Z,2.10
2019-02-25T13:48:29.893Z,2.50
2019-02-25T13:50:59.215Z,2.00
2019-02-25T13:53:27.686Z,1.83
2019-02-25T13:55:56.281Z,2.43
2019-02-25T13:58:24.762Z,1.63
2019-02-25T14:00:53.311Z,1.73
2019-02-25T14:03:21.756Z,1.50
2019-02-25T14:05:50.199Z,2.33
2019-02-25T14:08:18.690Z,1.77
2019-02-25T14:10:47.835Z,2.10
2019-02-25T14:13:16.299Z,2.00
2019-02-25T14:15:44.787Z,2.30
2019-02-25T14:18:13.235Z,2.50
2019-02-25T14:20:42.531Z,2.03
2019-02-25T14:23:10.988Z,2.40
2019-02-25T14:25:41.529Z,2.40
2019-02-25T14:28:10.528Z,2.47
2019-02-25T14:30:39.836Z,2.37
2019-02-25T14:33:08.280Z,2.30
2019-02-25T14:35:36.791Z,1.97
2019-02-25T14:38:09.725Z,1.90
2019-02-25T14:40:39.401Z,2.60
2019-02-25T14:43:10.515Z,1.97
2019-02-25T14:45:41.433Z,2.33
2019-02-25T14:48:08.206Z,2.00
2019-02-25T14:50:37.850Z,2.27
2019-02-25T14:53:10.781Z,1.93
2019-02-25T14:55:37.881Z,2.10
2019-02-25T14:58:07.501Z,2.00
2019-02-25T15:00:38.140Z,2.63
2019-02-25T15:03:06.672Z,2.17
2019-02-25T15:05:35.254Z,2.50
2019-02-25T15:08:03.695Z,2.40
2019-02-25T15:10:33.949Z,2.30
2019-02-25T15:13:04.010Z,2.37
2019-02-25T15:15:34.761Z,2.27
2019-02-25T15:18:03.164Z,1.80
2019-02-25T15:20:32.563Z,1.90
2019-02-25T15:23:01.011Z,2.17
2019-02-25T15:25:31.622Z,2.37
2019-02-25T15:27:59.677Z,1.77
2019-02-25T15:30:30.735Z,2.30
2019-02-25T15:32:59.977Z,1.80
2019-02-25T15:35:34.434Z,2.20
2019-02-25T15:38:02.204Z,2.30
2019-02-25T15:40:31.912Z,2.10
2019-02-25T15:43:01.930Z,2.07
2019-02-25T15:45:32.858Z,2.50
2019-02-25T15:48:01.779Z,2.53
2019-02-25T15:50:31.425Z,3.30
2019-02-25T15:53:02.814Z,2.03
2019-02-25T15:55:31.199Z,2.10
2019-02-25T15:58:00.089Z,1.93
2019-02-25T16:00:32.030Z,2.67
2019-02-25T16:03:00.633Z,2.17
2019-02-25T16:05:32.689Z,1.50
2019-02-25T16:08:02.612Z,2.13
2019-02-25T16:10:32.335Z,2.23
2019-02-25T16:13:04.895Z,2.60
2019-02-25T16:15:33.179Z,2.00
2019-02-25T16:18:02.887Z,2.40
2019-02-25T16:20:32.630Z,1.80
2019-02-25T16:23:05.272Z,2.30
2019-02-25T16:25:34.561Z,1.70
2019-02-25T16:28:05.990Z,2.30
2019-02-25T16:30:36.772Z,1.60
2019-02-25T16:33:07.288Z,1.53
2019-02-25T16:35:37.280Z,2.17
2019-02-25T16:38:07.328Z,2.17
2019-02-25T16:40:38.411Z,1.70
2019-02-25T16:43:09.745Z,1.80
2019-02-25T16:45:39.538Z,1.87
2019-02-25T16:48:10.091Z,1.97
2019-02-25T16:50:39.769Z,1.70
2019-02-25T16:53:10.901Z,1.90
2019-02-25T16:55:42.064Z,1.60
2019-02-25T16:58:13.035Z,2.00
2019-02-25T17:00:43.309Z,1.70
2019-02-25T17:03:13.762Z,2.20
2019-02-25T17:05:44.950Z,2.13
2019-02-25T17:08:14.785Z,2.10
2019-02-25T17:10:43.690Z,2.23
2019-02-25T17:13:14.815Z,2.00
2019-02-25T17:15:45.980Z,2.00
2019-02-25T17:18:15.811Z,1.80
2019-02-25T17:20:45.204Z,2.20
2019-02-25T17:23:14.288Z,1.80
2019-02-25T17:25:43.703Z,1.60
2019-02-25T17:28:15.234Z,2.30
2019-02-25T17:30:44.999Z,2.47
2019-02-25T17:33:14.856Z,2.30
2019-02-25T17:35:45.213Z,2.07
2019-02-25T17:38:14.493Z,2.47
2019-02-25T17:40:43.527Z,2.83
2019-02-25T17:43:13.932Z,2.10
2019-02-25T17:45:42.940Z,2.17
2019-02-25T17:48:13.677Z,2.20
2019-02-25T17:50:42.567Z,2.33
2019-02-25T17:53:11.463Z,2.83
2019-02-25T17:55:41.132Z,2.77
2019-02-25T17:58:13.004Z,2.40
2019-02-25T18:00:43.816Z,2.40
2019-02-25T18:03:12.760Z,2.00
2019-02-25T18:05:43.216Z,2.70
2019-02-25T18:08:15.292Z,2.60
2019-02-25T18:10:45.289Z,2.43
2019-02-25T18:13:14.836Z,3.20
2019-02-25T18:15:45.502Z,3.13
2019-02-25T18:18:17.804Z,3.00
2019-02-25T18:20:46.440Z,3.27
2019-02-25T18:23:15.417Z,2.90
2019-02-25T18:25:44.308Z,2.83
2019-02-25T18:28:15.146Z,2.90
2019-02-25T18:30:44.544Z,2.70
2019-02-25T18:33:13.792Z,2.80
2019-02-25T18:35:43.452Z,3.10
2019-02-25T18:38:13.491Z,2.90
2019-02-25T18:40:44.100Z,3.80
2019-02-25T18:43:13.551Z,3.03
2019-02-25T18:45:43.101Z,3.10
2019-02-25T18:48:13.331Z,2.80
2019-02-25T18:50:44.985Z,2.70
2019-02-25T18:53:12.876Z,3.20
2019-02-25T18:55:41.732Z,3.50
2019-02-25T18:58:11.929Z,3.57
2019-02-25T19:00:46.644Z,3.10
2019-02-25T19:03:14.159Z,3.20
2019-02-25T19:05:43.148Z,3.10
2019-02-25T19:08:22.714Z,3.93
2019-02-25T19:10:53.190Z,3.90
2019-02-25T19:13:23.329Z,3.57
2019-02-25T19:15:54.973Z,3.80
2019-02-25T19:18:24.091Z,3.83
2019-02-25T19:20:54.095Z,4.20
2019-02-25T19:23:23.364Z,4.40
2019-02-25T19:25:52.258Z,8.10
2019-02-25T19:28:22.188Z,9.30
2019-02-25T19:30:51.909Z,5.53
2019-02-25T19:33:21.760Z,4.40
2019-02-25T19:35:52.539Z,4.90
2019-02-25T19:38:21.180Z,4.57
2019-02-25T19:40:52.705Z,4.20
2019-02-25T19:43:20.597Z,4.50
2019-02-25T19:45:49.776Z,4.80
2019-02-25T19:48:19.406Z,5.40
2019-02-25T19:50:51.394Z,5.10
2019-02-25T19:53:20.742Z,4.30
2019-02-25T19:55:51.845Z,5.50
2019-02-25T19:58:20.166Z,4.83
2019-02-25T20:00:52.959Z,4.97
2019-02-25T20:03:20.099Z,5.80
2019-02-25T20:05:51.396Z,5.17
2019-02-25T20:08:19.522Z,5.13
2019-02-25T20:10:48.408Z,5.37
2019-02-25T20:13:17.299Z,5.70
2019-02-25T20:15:46.742Z,5.80
2019-02-25T20:18:18.360Z,5.23
2019-02-25T20:20:49.399Z,5.27
2019-02-25T20:23:19.990Z,4.20
2019-02-25T20:25:51.016Z,4.70
2019-02-25T20:28:20.734Z,4.67
2019-02-25T20:30:51.612Z,4.53
2019-02-25T20:33:20.714Z,4.50
2019-02-25T20:35:51.679Z,4.40
2019-02-25T20:38:22.514Z,5.03
2019-02-25T20:40:51.136Z,5.70
2019-02-25T20:43:23.691Z,4.77
2019-02-25T20:45:54.624Z,4.30
2019-02-25T20:48:23.174Z,4.20
2019-02-25T20:50:52.016Z,4.47
2019-02-25T20:53:22.541Z,4.63
2019-02-25T20:55:52.459Z,4.37
2019-02-25T20:58:23.225Z,4.10
2019-02-25T21:00:52.137Z,3.93
2019-02-25T21:03:23.074Z,4.50
2019-02-25T21:05:51.667Z,3.90
2019-02-25T21:08:21.311Z,4.37
2019-02-25T21:10:51.156Z,3.40
2019-02-25T21:13:22.074Z,4.23
2019-02-25T21:15:50.624Z,4.30
2019-02-25T21:18:20.315Z,4.33
2019-02-25T21:20:51.492Z,3.87
2019-02-25T21:23:20.589Z,3.50
2019-02-25T21:25:53.397Z,3.90
2019-02-25T21:28:19.942Z,3.70
2019-02-25T21:30:50.703Z,3.93
2019-02-25T21:33:19.934Z,4.00
2019-02-25T21:35:49.607Z,3.80
2019-02-25T21:38:19.605Z,3.67
2019-02-25T21:40:50.522Z,3.50
2019-02-25T21:43:21.115Z,4.27
2019-02-25T21:45:51.827Z,3.37
2019-02-25T21:48:23.091Z,4.10
2019-02-25T21:50:51.081Z,4.30
2019-02-25T21:53:19.916Z,3.53
2019-02-25T21:55:50.230Z,3.50
2019-02-25T21:58:21.249Z,3.70
2019-02-25T22:00:49.983Z,4.03
2019-02-25T22:03:19.518Z,3.40
2019-02-25T22:05:51.409Z,4.70
2019-02-25T22:08:22.089Z,4.20
2019-02-25T22:10:50.361Z,4.27
2019-02-25T22:13:20.806Z,4.10
2019-02-25T22:15:49.780Z,4.20
2019-02-25T22:18:18.671Z,4.20
2019-02-25T22:20:49.222Z,4.00
2019-02-25T22:23:21.990Z,4.60
2019-02-25T22:25:48.619Z,3.90
2019-02-25T22:28:17.512Z,4.27
2019-02-25T22:30:47.568Z,3.87
2019-02-25T22:33:27.024Z,4.87
2019-02-25T22:35:49.397Z,4.37
2019-02-25T22:38:18.050Z,4.17
2019-02-25T22:40:46.983Z,4.67
2019-02-25T22:43:16.409Z,4.60
2019-02-25T22:45:46.403Z,4.70
2019-02-25T22:48:16.392Z,4.13
2019-02-25T22:50:45.844Z,5.60
2019-02-25T22:53:14.816Z,3.87
2019-02-25T22:55:44.826Z,4.40
2019-02-25T22:58:14.946Z,4.00
2019-02-25T23:00:52.325Z,5.47
2019-02-25T23:03:24.582Z,4.97
2019-02-25T23:05:55.210Z,4.70
2019-02-25T23:08:26.059Z,5.07
2019-02-25T23:10:54.768Z,4.83
2019-02-25T23:13:25.046Z,5.03
2019-02-25T23:15:54.083Z,4.37
2019-02-25T23:18:25.113Z,4.67
2019-02-25T23:20:55.497Z,4.50
2019-02-25T23:23:25.690Z,4.87
2019-02-25T23:25:56.542Z,4.50
2019-02-25T23:28:26.146Z,5.57
2019-02-25T23:30:55.997Z,4.67
2019-02-25T23:33:25.534Z,4.90
2019-02-25T23:35:56.038Z,4.00
2019-02-25T23:38:24.955Z,4.87
2019-02-25T23:40:53.950Z,4.20
2019-02-25T23:43:22.842Z,4.87
2019-02-25T23:45:51.729Z,4.30
2019-02-25T23:48:20.668Z,5.10
2019-02-25T23:50:50.327Z,4.70
2019-02-25T23:53:20.092Z,5.13
2019-02-25T23:55:50.084Z,5.50
2019-02-25T23:58:20.235Z,4.80
